sensor_id;sensor_type;location;lat;lon;timestamp;pressure;altitude;pressure_sealevel;temperature;humidity
12172;BME280;6149;52.418;13.668;2023-03-14T00:00:20;98822.56;;;11.87;100.00
12172;BME280;6149;52.418;13.668;2023-03-14T00:02:51;98820.88;;;11.86;100.00
12172;BME280;6149;52.418;13.668;2023-03-14T00:05:20;98818.50;;;11.83;100.00
12172;BME280;6149;52.418;13.668;2023-03-14T00:07:52;98815.00;;;11.83;100.00
12172;BME280;6149;52.418;13.668;2023-03-14T00:10:19;98816.94;;;11.81;100.00
12172;BME280;6149;52.418;13.668;2023-03-14T00:12:50;98825.59;;;11.83;100.00
12172;BME280;6149;52.418;13.668;2023-03-14T00:15:18;98820.69;;;11.78;100.00
12172;BME280;6149;52.418;13.668;2023-03-14T00:17:44;98825.53;;;11.73;100.00
12172;BME280;6149;52.418;13.668;2023-03-14T00:20:11;98819.91;;;11.66;100.00
12172;BME280;6149;52.418;13.668;2023-03-14T00:22:38;98795.69;;;11.71;100.00
12172;BME280;6149;52.418;13.668;2023-03-14T00:25:09;98786.06;;;11.70;100.00
12172;BME280;6149;52.418;13.668;2023-03-14T00:27:40;98775.47;;;11.70;100.00
12172;BME280;6149;52.418;13.668;2023-03-14T00:30:09;98763.59;;;11.64;100.00
12172;BME280;6149;52.418;13.668;2023-03-14T00:32:41;98766.06;;;11.56;100.00
12172;BME280;6149;52.418;13.668;2023-03-14T00:35:08;98757.44;;;11.54;100.00
12172;BME280;6149;52.418;13.668;2023-03-14T00:37:35;98752.41;;;11.51;100.00
12172;BME280;6149;52.418;13.668;2023-03-14T00:40:02;98751.16;;;11.46;100.00
12172;BME280;6149;52.418;13.668;2023-03-14T00:42:35;98748.38;;;11.47;100.00
12172;BME280;6149;52.418;13.668;2023-03-14T00:45:04;98735.66;;;11.41;100.00
12172;BME280;6149;52.418;13.668;2023-03-14T00:47:34;98740.50;;;11.36;100.00
12172;BME280;6149;52.418;13.668;2023-03-14T00:50:00;98737.16;;;11.34;100.00
12172;BME280;6149;52.418;13.668;2023-03-14T00:52:27;98756.66;;;11.33;100.00
12172;BME280;6149;52.418;13.668;2023-03-14T00:54:53;98754.13;;;11.31;100.00
12172;BME280;6149;52.418;13.668;2023-03-14T00:57:22;98743.81;;;11.28;100.00
12172;BME280;6149;52.418;13.668;2023-03-14T00:59:51;98746.31;;;11.30;100.00
12172;BME280;6149;52.418;13.668;2023-03-14T01:02:20;98751.75;;;11.28;100.00
12172;BME280;6149;52.418;13.668;2023-03-14T01:04:48;98729.16;;;11.24;100.00
12172;BME280;6149;52.418;13.668;2023-03-14T01:07:17;98720.66;;;11.21;100.00
12172;BME280;6149;52.418;13.668;2023-03-14T01:09:44;98719.09;;;11.18;100.00
12172;BME280;6149;52.418;13.668;2023-03-14T01:12:12;98716.88;;;11.14;100.00
12172;BME280;6149;52.418;13.668;2023-03-14T01:14:40;98720.88;;;11.08;100.00
12172;BME280;6149;52.418;13.668;2023-03-14T01:17:08;98714.38;;;11.12;100.00
12172;BME280;6149;52.418;13.668;2023-03-14T01:19:35;98719.91;;;11.09;100.00
12172;BME280;6149;52.418;13.668;2023-03-14T01:22:01;98722.31;;;11.12;100.00
12172;BME280;6149;52.418;13.668;2023-03-14T01:24:28;98740.94;;;11.11;100.00
12172;BME280;6149;52.418;13.668;2023-03-14T01:26:58;98754.19;;;11.11;100.00
12172;BME280;6149;52.418;13.668;2023-03-14T01:29:25;98780.88;;;11.08;100.00
12172;BME280;6149;52.418;13.668;2023-03-14T01:31:51;98793.13;;;11.09;100.00
12172;BME280;6149;52.418;13.668;2023-03-14T01:34:24;98773.25;;;11.14;100.00
12172;BME280;6149;52.418;13.668;2023-03-14T01:36:50;98782.84;;;11.15;100.00
12172;BME280;6149;52.418;13.668;2023-03-14T01:39:18;98780.50;;;11.12;100.00
12172;BME280;6149;52.418;13.668;2023-03-14T01:41:45;98777.63;;;11.25;100.00
12172;BME280;6149;52.418;13.668;2023-03-14T01:44:17;98776.91;;;11.23;100.00
12172;BME280;6149;52.418;13.668;2023-03-14T01:46:44;98776.22;;;11.21;100.00
12172;BME280;6149;52.418;13.668;2023-03-14T01:49:25;98794.72;;;11.21;100.00
12172;BME280;6149;52.418;13.668;2023-03-14T01:51:59;98795.69;;;11.20;100.00
12172;BME280;6149;52.418;13.668;2023-03-14T01:54:31;98800.97;;;11.20;100.00
12172;BME280;6149;52.418;13.668;2023-03-14T01:57:04;98803.75;;;11.18;100.00
12172;BME280;6149;52.418;13.668;2023-03-14T01:59:33;98807.25;;;11.19;100.00
12172;BME280;6149;52.418;13.668;2023-03-14T02:02:02;98791.38;;;11.19;100.00
12172;BME280;6149;52.418;13.668;2023-03-14T02:04:34;98799.19;;;11.20;100.00
12172;BME280;6149;52.418;13.668;2023-03-14T02:07:07;98795.13;;;11.16;100.00
12172;BME280;6149;52.418;13.668;2023-03-14T02:09:38;98783.69;;;11.16;100.00
12172;BME280;6149;52.418;13.668;2023-03-14T02:12:07;98782.72;;;11.17;100.00
12172;BME280;6149;52.418;13.668;2023-03-14T02:14:39;98768.28;;;11.21;100.00
12172;BME280;6149;52.418;13.668;2023-03-14T02:17:13;98774.91;;;11.15;100.00
12172;BME280;6149;52.418;13.668;2023-03-14T02:20:08;98771.97;;;11.09;100.00
12172;BME280;6149;52.418;13.668;2023-03-14T02:22:42;98760.69;;;11.07;100.00
12172;BME280;6149;52.418;13.668;2023-03-14T02:25:19;98744.38;;;11.01;100.00
12172;BME280;6149;52.418;13.668;2023-03-14T02:27:51;98742.44;;;11.03;100.00
12172;BME280;6149;52.418;13.668;2023-03-14T02:30:20;98739.47;;;10.97;100.00
12172;BME280;6149;52.418;13.668;2023-03-14T02:32:52;98751.41;;;10.91;100.00
12172;BME280;6149;52.418;13.668;2023-03-14T02:35:22;98748.88;;;10.90;100.00
12172;BME280;6149;52.418;13.668;2023-03-14T02:37:55;98752.34;;;10.90;100.00
12172;BME280;6149;52.418;13.668;2023-03-14T02:40:25;98744.81;;;10.86;100.00
12172;BME280;6149;52.418;13.668;2023-03-14T02:42:55;98737.47;;;10.89;100.00
12172;BME280;6149;52.418;13.668;2023-03-14T02:45:38;98728.69;;;10.89;100.00
12172;BME280;6149;52.418;13.668;2023-03-14T02:48:13;98729.53;;;10.89;100.00
12172;BME280;6149;52.418;13.668;2023-03-14T02:50:44;98729.91;;;10.85;100.00
12172;BME280;6149;52.418;13.668;2023-03-14T02:53:16;98723.78;;;10.84;100.00
12172;BME280;6149;52.418;13.668;2023-03-14T02:55:46;98726.56;;;10.83;100.00
12172;BME280;6149;52.418;13.668;2023-03-14T02:58:19;98713.09;;;10.86;100.00
12172;BME280;6149;52.418;13.668;2023-03-14T03:00:49;98706.44;;;10.91;100.00
12172;BME280;6149;52.418;13.668;2023-03-14T03:03:18;98699.34;;;10.92;100.00
12172;BME280;6149;52.418;13.668;2023-03-14T03:05:48;98702.84;;;10.92;100.00
12172;BME280;6149;52.418;13.668;2023-03-14T03:08:15;98692.56;;;10.99;100.00
12172;BME280;6149;52.418;13.668;2023-03-14T03:10:44;98689.59;;;10.92;100.00
12172;BME280;6149;52.418;13.668;2023-03-14T03:13:10;98676.56;;;11.00;100.00
12172;BME280;6149;52.418;13.668;2023-03-14T03:15:38;98668.47;;;10.92;100.00
12172;BME280;6149;52.418;13.668;2023-03-14T03:18:06;98661.22;;;10.94;100.00
12172;BME280;6149;52.418;13.668;2023-03-14T03:20:32;98650.78;;;10.93;100.00
12172;BME280;6149;52.418;13.668;2023-03-14T03:23:01;98642.16;;;10.91;100.00
12172;BME280;6149;52.418;13.668;2023-03-14T03:25:28;98632.78;;;10.87;100.00
12172;BME280;6149;52.418;13.668;2023-03-14T03:27:55;98630.41;;;10.84;100.00
12172;BME280;6149;52.418;13.668;2023-03-14T03:30:23;98632.22;;;10.83;100.00
12172;BME280;6149;52.418;13.668;2023-03-14T03:32:54;98651.56;;;10.84;100.00
12172;BME280;6149;52.418;13.668;2023-03-14T03:35:20;98662.31;;;10.92;100.00
12172;BME280;6149;52.418;13.668;2023-03-14T03:37:48;98660.91;;;10.88;100.00
12172;BME280;6149;52.418;13.668;2023-03-14T03:40:15;98661.63;;;10.90;100.00
12172;BME280;6149;52.418;13.668;2023-03-14T03:42:53;98661.63;;;10.90;100.00
12172;BME280;6149;52.418;13.668;2023-03-14T03:45:20;98661.88;;;10.87;100.00
12172;BME280;6149;52.418;13.668;2023-03-14T03:47:54;98668.84;;;10.88;100.00
12172;BME280;6149;52.418;13.668;2023-03-14T03:50:21;98671.22;;;10.91;100.00
12172;BME280;6149;52.418;13.668;2023-03-14T03:52:49;98665.81;;;10.92;100.00
12172;BME280;6149;52.418;13.668;2023-03-14T03:55:16;98665.28;;;10.98;100.00
12172;BME280;6149;52.418;13.668;2023-03-14T03:57:43;98666.66;;;10.93;100.00
12172;BME280;6149;52.418;13.668;2023-03-14T04:00:11;98654.25;;;10.93;100.00
12172;BME280;6149;52.418;13.668;2023-03-14T04:02:38;98651.34;;;10.96;100.00
12172;BME280;6149;52.418;13.668;2023-03-14T04:05:06;98653.25;;;10.85;100.00
12172;BME280;6149;52.418;13.668;2023-03-14T04:07:33;98658.53;;;10.85;100.00
12172;BME280;6149;52.418;13.668;2023-03-14T04:10:00;98669.81;;;10.87;100.00
12172;BME280;6149;52.418;13.668;2023-03-14T04:12:27;98663.44;;;10.89;100.00
12172;BME280;6149;52.418;13.668;2023-03-14T04:14:54;98655.38;;;10.91;100.00
12172;BME280;6149;52.418;13.668;2023-03-14T04:17:21;98654.22;;;10.84;100.00
12172;BME280;6149;52.418;13.668;2023-03-14T04:19:49;98658.84;;;10.91;100.00
12172;BME280;6149;52.418;13.668;2023-03-14T04:22:19;98656.72;;;10.85;100.00
12172;BME280;6149;52.418;13.668;2023-03-14T04:24:50;98654.91;;;10.86;100.00
12172;BME280;6149;52.418;13.668;2023-03-14T04:27:19;98644.84;;;10.80;100.00
12172;BME280;6149;52.418;13.668;2023-03-14T04:29:49;98638.31;;;10.74;100.00
12172;BME280;6149;52.418;13.668;2023-03-14T04:32:17;98633.28;;;10.71;100.00
12172;BME280;6149;52.418;13.668;2023-03-14T04:34:47;98636.78;;;10.71;100.00
12172;BME280;6149;52.418;13.668;2023-03-14T04:37:14;98640.19;;;10.62;100.00
12172;BME280;6149;52.418;13.668;2023-03-14T04:39:42;98628.84;;;10.71;100.00
12172;BME280;6149;52.418;13.668;2023-03-14T04:42:10;98621.19;;;10.78;100.00
12172;BME280;6149;52.418;13.668;2023-03-14T04:44:36;98624.66;;;10.69;100.00
12172;BME280;6149;52.418;13.668;2023-03-14T04:47:04;98621.66;;;10.83;100.00
12172;BME280;6149;52.418;13.668;2023-03-14T04:49:31;98632.75;;;10.77;100.00
12172;BME280;6149;52.418;13.668;2023-03-14T04:51:58;98621.75;;;10.72;100.00
12172;BME280;6149;52.418;13.668;2023-03-14T04:54:24;98624.97;;;10.76;100.00
12172;BME280;6149;52.418;13.668;2023-03-14T04:56:54;98623.09;;;10.66;100.00
12172;BME280;6149;52.418;13.668;2023-03-14T04:59:22;98597.38;;;10.68;100.00
12172;BME280;6149;52.418;13.668;2023-03-14T05:01:49;98598.75;;;10.63;100.00
12172;BME280;6149;52.418;13.668;2023-03-14T05:04:19;98580.69;;;10.68;100.00
12172;BME280;6149;52.418;13.668;2023-03-14T05:06:46;98597.31;;;10.59;100.00
12172;BME280;6149;52.418;13.668;2023-03-14T05:09:16;98597.13;;;10.51;100.00
12172;BME280;6149;52.418;13.668;2023-03-14T05:11:44;98595.38;;;10.61;100.00
12172;BME280;6149;52.418;13.668;2023-03-14T05:14:12;98603.13;;;10.53;100.00
12172;BME280;6149;52.418;13.668;2023-03-14T05:16:39;98608.28;;;10.54;100.00
12172;BME280;6149;52.418;13.668;2023-03-14T05:19:07;98604.16;;;10.61;100.00
12172;BME280;6149;52.418;13.668;2023-03-14T05:21:37;98601.31;;;10.53;100.00
12172;BME280;6149;52.418;13.668;2023-03-14T05:24:04;98587.97;;;10.55;100.00
12172;BME280;6149;52.418;13.668;2023-03-14T05:26:33;98576.25;;;10.48;100.00
12172;BME280;6149;52.418;13.668;2023-03-14T05:29:00;98576.38;;;10.46;100.00
12172;BME280;6149;52.418;13.668;2023-03-14T05:31:32;98581.53;;;10.48;100.00
12172;BME280;6149;52.418;13.668;2023-03-14T05:33:59;98592.88;;;10.59;100.00
12172;BME280;6149;52.418;13.668;2023-03-14T05:36:26;98586.56;;;10.51;100.00
12172;BME280;6149;52.418;13.668;2023-03-14T05:38:54;98584.06;;;10.49;100.00
12172;BME280;6149;52.418;13.668;2023-03-14T05:41:24;98586.44;;;10.52;100.00
12172;BME280;6149;52.418;13.668;2023-03-14T05:43:51;98584.09;;;10.59;100.00
12172;BME280;6149;52.418;13.668;2023-03-14T05:46:19;98584.81;;;10.61;100.00
12172;BME280;6149;52.418;13.668;2023-03-14T05:48:49;98579.13;;;10.65;100.00
12172;BME280;6149;52.418;13.668;2023-03-14T05:51:17;98582.63;;;10.66;100.00
12172;BME280;6149;52.418;13.668;2023-03-14T05:53:46;98585.66;;;10.61;100.00
12172;BME280;6149;52.418;13.668;2023-03-14T05:56:13;98587.47;;;10.61;100.00
12172;BME280;6149;52.418;13.668;2023-03-14T05:58:41;98586.50;;;10.62;100.00
12172;BME280;6149;52.418;13.668;2023-03-14T06:01:08;98582.19;;;10.61;100.00
12172;BME280;6149;52.418;13.668;2023-03-14T06:03:38;98580.09;;;10.64;100.00
12172;BME280;6149;52.418;13.668;2023-03-14T06:06:06;98581.53;;;10.68;100.00
12172;BME280;6149;52.418;13.668;2023-03-14T06:08:33;98574.03;;;10.74;100.00
12172;BME280;6149;52.418;13.668;2023-03-14T06:11:03;98576.97;;;10.80;100.00
12172;BME280;6149;52.418;13.668;2023-03-14T06:13:30;98579.19;;;10.75;100.00
12172;BME280;6149;52.418;13.668;2023-03-14T06:15:58;98574.56;;;10.77;100.00
12172;BME280;6149;52.418;13.668;2023-03-14T06:18:26;98574.44;;;10.79;100.00
12172;BME280;6149;52.418;13.668;2023-03-14T06:20:53;98575.41;;;10.78;100.00
12172;BME280;6149;52.418;13.668;2023-03-14T06:23:25;98585.59;;;10.73;100.00
12172;BME280;6149;52.418;13.668;2023-03-14T06:25:53;98587.53;;;10.80;100.00
12172;BME280;6149;52.418;13.668;2023-03-14T06:28:21;98590.03;;;10.82;100.00
12172;BME280;6149;52.418;13.668;2023-03-14T06:30:48;98586.84;;;10.78;100.00
12172;BME280;6149;52.418;13.668;2023-03-14T06:33:15;98597.13;;;10.81;100.00
12172;BME280;6149;52.418;13.668;2023-03-14T06:35:44;98590.63;;;10.85;100.00
12172;BME280;6149;52.418;13.668;2023-03-14T06:38:15;98595.66;;;10.88;100.00
12172;BME280;6149;52.418;13.668;2023-03-14T06:40:48;98602.22;;;10.94;99.62
12172;BME280;6149;52.418;13.668;2023-03-14T06:43:18;98598.34;;;10.98;99.72
12172;BME280;6149;52.418;13.668;2023-03-14T06:45:46;98601.81;;;10.98;99.41
12172;BME280;6149;52.418;13.668;2023-03-14T06:48:14;98590.84;;;11.03;98.50
12172;BME280;6149;52.418;13.668;2023-03-14T06:50:41;98589.75;;;11.15;98.12
12172;BME280;6149;52.418;13.668;2023-03-14T06:53:08;98597.97;;;11.12;98.13
12172;BME280;6149;52.418;13.668;2023-03-14T06:55:36;98601.72;;;11.10;98.29
12172;BME280;6149;52.418;13.668;2023-03-14T06:58:05;98613.88;;;11.22;97.77
12172;BME280;6149;52.418;13.668;2023-03-14T07:00:34;98625.53;;;11.19;98.17
12172;BME280;6149;52.418;13.668;2023-03-14T07:03:05;98627.63;;;11.16;97.62
12172;BME280;6149;52.418;13.668;2023-03-14T07:05:33;98630.56;;;11.13;97.79
12172;BME280;6149;52.418;13.668;2023-03-14T07:08:06;98639.03;;;11.16;99.10
12172;BME280;6149;52.418;13.668;2023-03-14T07:10:34;98638.63;;;11.21;97.21
12172;BME280;6149;52.418;13.668;2023-03-14T07:13:00;98646.31;;;11.24;98.40
12172;BME280;6149;52.418;13.668;2023-03-14T07:15:30;98647.47;;;11.31;96.48
12172;BME280;6149;52.418;13.668;2023-03-14T07:17:57;98644.38;;;11.26;98.37
12172;BME280;6149;52.418;13.668;2023-03-14T07:20:24;98654.44;;;11.32;97.08
12172;BME280;6149;52.418;13.668;2023-03-14T07:22:51;98649.47;;;11.48;96.94
12172;BME280;6149;52.418;13.668;2023-03-14T07:25:22;98653.06;;;11.37;96.84
12172;BME280;6149;52.418;13.668;2023-03-14T07:27:48;98653.75;;;11.39;96.84
12172;BME280;6149;52.418;13.668;2023-03-14T07:30:18;98649.75;;;11.45;96.88
12172;BME280;6149;52.418;13.668;2023-03-14T07:32:52;98650.97;;;11.41;96.07
12172;BME280;6149;52.418;13.668;2023-03-14T07:35:20;98655.56;;;11.39;96.09
12172;BME280;6149;52.418;13.668;2023-03-14T07:37:48;98662.28;;;11.43;96.73
12172;BME280;6149;52.418;13.668;2023-03-14T07:40:16;98655.03;;;11.55;94.67
12172;BME280;6149;52.418;13.668;2023-03-14T07:42:44;98650.72;;;11.54;96.08
12172;BME280;6149;52.418;13.668;2023-03-14T07:45:13;98658.38;;;11.57;95.04
12172;BME280;6149;52.418;13.668;2023-03-14T07:47:41;98654.34;;;11.53;96.46
12172;BME280;6149;52.418;13.668;2023-03-14T07:50:13;98648.09;;;11.63;95.01
12172;BME280;6149;52.418;13.668;2023-03-14T07:52:41;98653.53;;;11.62;94.92
12172;BME280;6149;52.418;13.668;2023-03-14T07:55:08;98656.75;;;11.65;94.05
12172;BME280;6149;52.418;13.668;2023-03-14T07:57:35;98651.44;;;11.65;94.17
12172;BME280;6149;52.418;13.668;2023-03-14T08:00:04;98656.34;;;11.70;94.19
12172;BME280;6149;52.418;13.668;2023-03-14T08:02:32;98659.56;;;11.73;92.99
12172;BME280;6149;52.418;13.668;2023-03-14T08:04:58;98650.41;;;11.78;93.50
12172;BME280;6149;52.418;13.668;2023-03-14T08:07:28;98645.25;;;11.86;93.20
12172;BME280;6149;52.418;13.668;2023-03-14T08:09:55;98646.50;;;12.01;92.76
12172;BME280;6149;52.418;13.668;2023-03-14T08:12:23;98634.94;;;12.02;93.02
12172;BME280;6149;52.418;13.668;2023-03-14T08:14:51;98639.00;;;12.16;92.94
12172;BME280;6149;52.418;13.668;2023-03-14T08:17:19;98641.06;;;12.31;92.89
12172;BME280;6149;52.418;13.668;2023-03-14T08:19:45;98640.78;;;12.34;91.99
12172;BME280;6149;52.418;13.668;2023-03-14T08:22:14;98630.31;;;12.52;91.56
12172;BME280;6149;52.418;13.668;2023-03-14T08:24:54;98629.88;;;12.57;89.93
12172;BME280;6149;52.418;13.668;2023-03-14T08:27:22;98625.97;;;12.61;88.46
12172;BME280;6149;52.418;13.668;2023-03-14T08:29:51;98634.34;;;12.56;88.31
12172;BME280;6149;52.418;13.668;2023-03-14T08:32:18;98633.78;;;12.53;90.32
12172;BME280;6149;52.418;13.668;2023-03-14T08:34:49;98643.97;;;12.57;89.00
12172;BME280;6149;52.418;13.668;2023-03-14T08:37:16;98642.84;;;12.60;89.74
12172;BME280;6149;52.418;13.668;2023-03-14T08:39:46;98644.34;;;12.72;89.24
12172;BME280;6149;52.418;13.668;2023-03-14T08:42:13;98650.22;;;12.66;89.16
12172;BME280;6149;52.418;13.668;2023-03-14T08:44:40;98642.09;;;12.77;87.61
12172;BME280;6149;52.418;13.668;2023-03-14T08:47:08;98635.41;;;12.73;88.19
12172;BME280;6149;52.418;13.668;2023-03-14T08:49:35;98646.41;;;12.78;87.92
12172;BME280;6149;52.418;13.668;2023-03-14T08:52:03;98645.31;;;12.71;86.95
12172;BME280;6149;52.418;13.668;2023-03-14T08:54:30;98644.34;;;12.62;87.72
12172;BME280;6149;52.418;13.668;2023-03-14T08:56:58;98635.13;;;12.76;87.92
12172;BME280;6149;52.418;13.668;2023-03-14T08:59:26;98652.16;;;12.64;88.53
12172;BME280;6149;52.418;13.668;2023-03-14T09:01:54;98643.69;;;12.60;88.59
12172;BME280;6149;52.418;13.668;2023-03-14T09:04:20;98642.66;;;12.71;87.99
12172;BME280;6149;52.418;13.668;2023-03-14T09:06:49;98640.72;;;12.73;88.23
12172;BME280;6149;52.418;13.668;2023-03-14T09:09:16;98649.66;;;12.72;88.23
12172;BME280;6149;52.418;13.668;2023-03-14T09:11:45;98639.72;;;12.74;88.24
12172;BME280;6149;52.418;13.668;2023-03-14T09:14:16;98636.09;;;12.75;87.13
12172;BME280;6149;52.418;13.668;2023-03-14T09:16:51;98638.72;;;12.94;86.87
12172;BME280;6149;52.418;13.668;2023-03-14T09:19:21;98643.88;;;12.96;85.35
12172;BME280;6149;52.418;13.668;2023-03-14T09:21:52;98634.25;;;12.85;86.20
12172;BME280;6149;52.418;13.668;2023-03-14T09:24:20;98636.91;;;12.95;86.61
12172;BME280;6149;52.418;13.668;2023-03-14T09:26:48;98639.69;;;12.93;85.65
12172;BME280;6149;52.418;13.668;2023-03-14T09:29:20;98620.78;;;13.16;85.61
12172;BME280;6149;52.418;13.668;2023-03-14T09:31:48;98623.97;;;13.19;84.01
12172;BME280;6149;52.418;13.668;2023-03-14T09:34:16;98625.94;;;13.45;83.92
12172;BME280;6149;52.418;13.668;2023-03-14T09:36:44;98621.34;;;13.82;83.77
12172;BME280;6149;52.418;13.668;2023-03-14T09:39:11;98626.81;;;14.16;78.88
12172;BME280;6149;52.418;13.668;2023-03-14T09:41:40;98626.19;;;14.58;79.53
12172;BME280;6149;52.418;13.668;2023-03-14T09:44:12;98627.75;;;14.94;75.32
12172;BME280;6149;52.418;13.668;2023-03-14T09:46:45;98633.69;;;15.14;73.56
12172;BME280;6149;52.418;13.668;2023-03-14T09:49:20;98636.88;;;15.26;73.27
12172;BME280;6149;52.418;13.668;2023-03-14T09:51:50;98635.88;;;15.19;72.17
12172;BME280;6149;52.418;13.668;2023-03-14T09:54:31;98632.47;;;15.43;73.33
12172;BME280;6149;52.418;13.668;2023-03-14T09:57:02;98624.22;;;15.62;70.15
12172;BME280;6149;52.418;13.668;2023-03-14T09:59:33;98641.63;;;15.82;68.52
12172;BME280;6149;52.418;13.668;2023-03-14T10:02:17;98638.63;;;15.85;68.09
12172;BME280;6149;52.418;13.668;2023-03-14T10:04:47;98630.75;;;15.67;68.45
12172;BME280;6149;52.418;13.668;2023-03-14T10:07:16;98639.66;;;15.08;67.92
12172;BME280;6149;52.418;13.668;2023-03-14T10:09:50;98637.69;;;14.84;69.13
12172;BME280;6149;52.418;13.668;2023-03-14T10:12:20;98643.16;;;14.83;70.98
12172;BME280;6149;52.418;13.668;2023-03-14T10:15:02;98642.22;;;14.66;71.40
12172;BME280;6149;52.418;13.668;2023-03-14T10:17:38;98651.22;;;14.47;71.62
12172;BME280;6149;52.418;13.668;2023-03-14T10:20:27;98639.13;;;14.35;72.00
12172;BME280;6149;52.418;13.668;2023-03-14T10:23:00;98644.13;;;14.38;71.17
12172;BME280;6149;52.418;13.668;2023-03-14T10:25:30;98642.69;;;14.26;72.17
12172;BME280;6149;52.418;13.668;2023-03-14T10:27:59;98646.63;;;14.22;72.33
12172;BME280;6149;52.418;13.668;2023-03-14T10:30:30;98639.56;;;14.13;74.13
12172;BME280;6149;52.418;13.668;2023-03-14T10:33:18;98637.06;;;14.11;74.03
12172;BME280;6149;52.418;13.668;2023-03-14T10:35:54;98643.63;;;13.99;71.49
12172;BME280;6149;52.418;13.668;2023-03-14T10:38:26;98640.28;;;13.97;72.14
12172;BME280;6149;52.418;13.668;2023-03-14T10:40:55;98647.84;;;13.92;72.68
12172;BME280;6149;52.418;13.668;2023-03-14T10:43:26;98644.06;;;13.94;72.04
12172;BME280;6149;52.418;13.668;2023-03-14T10:46:01;98644.66;;;13.88;72.44
12172;BME280;6149;52.418;13.668;2023-03-14T10:48:39;98645.25;;;13.82;72.06
12172;BME280;6149;52.418;13.668;2023-03-14T10:51:18;98644.81;;;13.87;71.91
12172;BME280;6149;52.418;13.668;2023-03-14T10:53:48;98640.34;;;13.87;72.43
12172;BME280;6149;52.418;13.668;2023-03-14T10:56:25;98647.78;;;13.84;72.91
12172;BME280;6149;52.418;13.668;2023-03-14T10:58:57;98646.09;;;13.83;73.64
12172;BME280;6149;52.418;13.668;2023-03-14T11:01:32;98643.06;;;13.78;73.51
12172;BME280;6149;52.418;13.668;2023-03-14T11:04:18;98646.19;;;13.73;75.41
12172;BME280;6149;52.418;13.668;2023-03-14T11:06:56;98645.66;;;13.69;75.69
12172;BME280;6149;52.418;13.668;2023-03-14T11:09:31;98647.50;;;13.59;75.48
12172;BME280;6149;52.418;13.668;2023-03-14T11:12:03;98646.81;;;13.57;76.33
12172;BME280;6149;52.418;13.668;2023-03-14T11:14:46;98646.97;;;13.56;76.56
12172;BME280;6149;52.418;13.668;2023-03-14T11:17:23;98641.28;;;13.51;77.69
12172;BME280;6149;52.418;13.668;2023-03-14T11:20:17;98649.41;;;13.39;77.90
12172;BME280;6149;52.418;13.668;2023-03-14T11:22:58;98644.25;;;13.38;78.08
12172;BME280;6149;52.418;13.668;2023-03-14T11:25:32;98638.72;;;13.31;77.93
12172;BME280;6149;52.418;13.668;2023-03-14T11:28:09;98641.78;;;13.36;78.31
12172;BME280;6149;52.418;13.668;2023-03-14T11:30:51;98642.06;;;13.33;78.51
12172;BME280;6149;52.418;13.668;2023-03-14T11:33:22;98645.25;;;13.37;79.72
12172;BME280;6149;52.418;13.668;2023-03-14T11:35:58;98635.16;;;13.41;79.09
12172;BME280;6149;52.418;13.668;2023-03-14T11:38:30;98640.34;;;13.42;78.90
12172;BME280;6149;52.418;13.668;2023-03-14T11:41:00;98641.84;;;13.45;79.03
12172;BME280;6149;52.418;13.668;2023-03-14T11:43:30;98643.97;;;13.41;77.06
12172;BME280;6149;52.418;13.668;2023-03-14T11:46:04;98638.75;;;13.49;77.53
12172;BME280;6149;52.418;13.668;2023-03-14T11:48:40;98640.53;;;13.58;76.99
12172;BME280;6149;52.418;13.668;2023-03-14T11:51:20;98642.41;;;13.48;77.70
12172;BME280;6149;52.418;13.668;2023-03-14T11:53:55;98646.53;;;13.60;77.50
12172;BME280;6149;52.418;13.668;2023-03-14T11:56:31;98649.22;;;13.51;77.83
12172;BME280;6149;52.418;13.668;2023-03-14T11:59:05;98637.03;;;13.58;77.51
12172;BME280;6149;52.418;13.668;2023-03-14T12:01:49;98638.31;;;13.54;78.43
12172;BME280;6149;52.418;13.668;2023-03-14T12:04:34;98633.59;;;13.48;79.22
12172;BME280;6149;52.418;13.668;2023-03-14T12:07:17;98622.94;;;13.30;79.32
12172;BME280;6149;52.418;13.668;2023-03-14T12:09:49;98618.50;;;13.21;79.22
12172;BME280;6149;52.418;13.668;2023-03-14T12:12:19;98622.00;;;13.21;79.48
12172;BME280;6149;52.418;13.668;2023-03-14T12:14:53;98626.16;;;13.33;79.50
12172;BME280;6149;52.418;13.668;2023-03-14T12:17:24;98620.22;;;13.39;81.54
12172;BME280;6149;52.418;13.668;2023-03-14T12:20:05;98594.59;;;13.30;82.19
12172;BME280;6149;52.418;13.668;2023-03-14T12:23:02;98616.66;;;13.31;80.73
12172;BME280;6149;52.418;13.668;2023-03-14T12:25:30;98609.94;;;13.36;80.60
12172;BME280;6149;52.418;13.668;2023-03-14T12:28:05;98609.75;;;13.38;81.02
12172;BME280;6149;52.418;13.668;2023-03-14T12:30:44;98606.06;;;13.49;79.52
12172;BME280;6149;52.418;13.668;2023-03-14T12:33:29;98597.19;;;13.58;80.05
12172;BME280;6149;52.418;13.668;2023-03-14T12:36:11;98606.31;;;13.55;80.08
12172;BME280;6149;52.418;13.668;2023-03-14T12:38:58;98598.81;;;13.68;81.59
12172;BME280;6149;52.418;13.668;2023-03-14T12:41:36;98601.69;;;13.75;80.33
12172;BME280;6149;52.418;13.668;2023-03-14T12:44:39;98594.34;;;13.69;79.79
12172;BME280;6149;52.418;13.668;2023-03-14T12:50:24;98601.88;;;13.74;77.18
12172;BME280;6149;52.418;13.668;2023-03-14T12:53:15;98595.53;;;13.75;77.88
12172;BME280;6149;52.418;13.668;2023-03-14T12:56:22;98591.84;;;13.67;78.51
12172;BME280;6149;52.418;13.668;2023-03-14T12:59:18;98596.63;;;13.64;78.09
12172;BME280;6149;52.418;13.668;2023-03-14T13:01:56;98585.53;;;13.68;77.08
12172;BME280;6149;52.418;13.668;2023-03-14T13:04:28;98573.63;;;13.73;78.24
12172;BME280;6149;52.418;13.668;2023-03-14T13:07:01;98576.09;;;13.74;77.55
12172;BME280;6149;52.418;13.668;2023-03-14T13:12:51;98573.91;;;13.87;76.58
12172;BME280;6149;52.418;13.668;2023-03-14T13:15:24;98570.41;;;13.87;76.58
12172;BME280;6149;52.418;13.668;2023-03-14T13:18:01;98579.59;;;13.92;76.37
12172;BME280;6149;52.418;13.668;2023-03-14T13:20:36;98574.00;;;13.95;74.88